createdAt,value
2018-02-20T00:00:26.189Z,3.60
2018-02-20T00:01:26.628Z,3.70
2018-02-20T00:02:25.986Z,3.70
2018-02-20T00:03:26.220Z,3.90
2018-02-20T00:08:28.974Z,3.60
2018-02-20T00:09:29.209Z,3.30
2018-02-20T00:10:29.443Z,3.40
2018-02-20T00:11:29.676Z,3.50
2018-02-20T00:15:02.699Z,3.20
2018-02-20T00:16:01.769Z,3.40
2018-02-20T00:17:02.278Z,3.70
2018-02-20T00:18:01.585Z,3.50
2018-02-20T00:19:02.682Z,3.40
2018-02-20T00:20:02.706Z,3.50
2018-02-20T00:21:02.248Z,3.60
2018-02-20T00:22:02.476Z,3.20
2018-02-20T00:23:03.683Z,3.60
2018-02-20T00:24:02.936Z,3.60
2018-02-20T00:25:03.685Z,3.40
2018-02-20T00:26:03.379Z,3.60
2018-02-20T00:27:04.686Z,3.60
2018-02-20T00:28:04.686Z,3.50
2018-02-20T00:29:04.685Z,3.60
2018-02-20T00:30:04.279Z,3.60
2018-02-20T00:31:04.507Z,3.40
2018-02-20T00:32:06.185Z,3.70
2018-02-20T00:33:05.687Z,3.60
2018-02-20T00:34:06.687Z,3.50
2018-02-20T00:35:06.733Z,3.40
2018-02-20T00:36:05.705Z,3.40
2018-02-20T00:37:06.688Z,3.90
2018-02-20T00:38:06.696Z,3.40
2018-02-20T00:39:06.398Z,3.40
2018-02-20T00:40:07.190Z,3.50
2018-02-20T00:41:06.859Z,3.50
2018-02-20T00:42:07.088Z,3.50
2018-02-20T00:43:07.318Z,3.50
2018-02-20T00:44:07.556Z,3.50
2018-02-20T00:45:09.190Z,3.40
2018-02-20T00:46:09.691Z,3.50
2018-02-20T00:47:08.228Z,3.60
2018-02-20T00:48:09.196Z,3.50
2018-02-20T00:49:09.191Z,3.60
2018-02-20T00:50:08.867Z,3.50
2018-02-20T00:51:09.692Z,3.50
2018-02-20T00:52:10.281Z,3.40
2018-02-20T00:53:09.522Z,3.80
2018-02-20T00:54:09.734Z,3.30
2018-02-20T00:55:09.989Z,3.80
2018-02-20T00:56:10.220Z,3.60
2018-02-20T00:57:10.456Z,3.60
2018-02-20T00:58:10.708Z,3.50
2018-02-20T00:59:11.696Z,3.30
2018-02-20T01:00:11.168Z,3.70
2018-02-20T01:01:11.400Z,3.60
2018-02-20T01:02:12.215Z,3.50
2018-02-20T01:03:12.724Z,3.50
2018-02-20T01:04:12.237Z,4.00
2018-02-20T01:05:12.472Z,3.20
2018-02-20T01:06:13.204Z,3.50
2018-02-20T01:07:12.907Z,3.40
2018-02-20T01:08:13.137Z,3.70
2018-02-20T01:09:14.260Z,3.50
2018-02-20T01:10:13.598Z,3.60
2018-02-20T01:11:14.699Z,3.50
2018-02-20T01:12:14.035Z,3.50
2018-02-20T01:13:14.268Z,3.40
2018-02-20T01:14:15.201Z,3.60
2018-02-20T01:15:14.735Z,3.70
2018-02-20T01:16:14.965Z,3.70
2018-02-20T01:17:15.195Z,3.20
2018-02-20T01:18:16.200Z,3.70
2018-02-20T01:19:16.201Z,3.70
2018-02-20T01:20:17.250Z,3.50
2018-02-20T01:21:17.228Z,3.50
2018-02-20T01:22:17.221Z,3.30
2018-02-20T01:23:16.767Z,3.70
2018-02-20T01:24:18.207Z,3.40
2018-02-20T01:25:17.703Z,3.60
2018-02-20T01:26:19.205Z,3.70
2018-02-20T01:27:17.807Z,3.50
2018-02-20T01:28:18.036Z,3.60
2018-02-20T01:29:19.204Z,3.10
2018-02-20T01:30:19.232Z,3.30
2018-02-20T01:31:18.716Z,3.40
2018-02-20T01:32:18.943Z,3.50
2018-02-20T01:33:20.704Z,3.50
2018-02-20T01:34:19.610Z,3.20
2018-02-20T01:35:19.825Z,3.40
2018-02-20T01:36:20.717Z,3.30
2018-02-20T01:37:21.213Z,3.50
2018-02-20T01:38:20.470Z,3.40
2018-02-20T01:39:20.687Z,3.50
2018-02-20T01:40:22.744Z,3.30
2018-02-20T01:41:21.707Z,3.40
2018-02-20T01:42:22.208Z,3.40
2018-02-20T01:43:21.565Z,3.40
2018-02-20T01:44:21.801Z,3.30
2018-02-20T01:45:22.023Z,3.20
2018-02-20T01:46:22.238Z,3.60
2018-02-20T01:47:22.478Z,3.70
2018-02-20T01:48:23.710Z,3.30
2018-02-20T01:49:22.894Z,3.20
2018-02-20T01:50:23.715Z,3.50
2018-02-20T01:51:23.343Z,3.50
2018-02-20T01:52:23.566Z,3.50
2018-02-20T01:53:23.799Z,3.60
2018-02-20T01:54:24.029Z,3.60
2018-02-20T01:55:24.248Z,3.30
2018-02-20T01:56:24.471Z,3.30
2018-02-20T01:57:24.700Z,3.50
2018-02-20T01:58:24.929Z,3.20
2018-02-20T01:59:25.158Z,3.50
2018-02-20T02:00:25.385Z,3.50
2018-02-20T02:01:25.614Z,3.30
2018-02-20T02:02:25.831Z,3.30
2018-02-20T02:03:26.056Z,3.60
2018-02-20T02:04:26.283Z,3.20
2018-02-20T02:05:27.222Z,3.40
2018-02-20T02:06:26.761Z,3.20
2018-02-20T02:07:27.718Z,3.30
2018-02-20T02:08:27.716Z,3.50
2018-02-20T02:09:28.216Z,3.30
2018-02-20T02:10:28.243Z,3.40
2018-02-20T02:11:28.715Z,3.40
2018-02-20T02:12:28.222Z,3.50
2018-02-20T02:13:28.445Z,3.30
2018-02-20T02:14:28.675Z,3.60
2018-02-20T02:15:28.917Z,3.20
2018-02-20T02:16:29.172Z,3.30
2018-02-20T02:29:36.342Z,3.30
2018-02-20T02:30:35.865Z,3.60
2018-02-20T02:31:36.326Z,3.30
2018-02-20T02:32:35.617Z,3.40
2018-02-20T02:33:36.355Z,3.20
2018-02-20T02:34:36.047Z,3.40
2018-02-20T02:35:36.275Z,3.20
2018-02-20T02:36:36.478Z,3.30
2018-02-20T02:37:38.332Z,3.50
2018-02-20T02:38:38.328Z,3.50
2018-02-20T02:39:37.160Z,3.40
2018-02-20T02:40:37.393Z,3.40
2018-02-20T02:41:38.328Z,3.30
2018-02-20T02:42:37.858Z,3.30
2018-02-20T02:43:38.068Z,3.60
2018-02-20T02:44:38.297Z,3.30
2018-02-20T02:45:38.525Z,3.40
2018-02-20T02:46:39.330Z,3.50
2018-02-20T02:47:38.968Z,3.20
2018-02-20T02:48:39.831Z,3.40
2018-02-20T02:49:39.439Z,3.40
2018-02-20T02:50:39.667Z,3.20
2018-02-20T02:51:39.901Z,3.40
2018-02-20T02:52:40.129Z,3.30
2018-02-20T02:53:40.834Z,3.30
2018-02-20T02:54:41.331Z,3.30
2018-02-20T02:55:42.343Z,3.20
2018-02-20T02:56:41.834Z,3.50
2018-02-20T02:57:42.335Z,3.20
2018-02-20T02:58:41.604Z,3.00
2018-02-20T02:59:42.833Z,3.00
2018-02-20T03:00:42.072Z,3.20
2018-02-20T03:01:42.954Z,3.50
2018-02-20T03:02:42.511Z,3.50
2018-02-20T03:03:42.723Z,3.40
2018-02-20T03:04:42.977Z,3.40
2018-02-20T03:05:43.834Z,3.70
2018-02-20T03:06:44.339Z,3.40
2018-02-20T03:07:44.338Z,3.50
2018-02-20T03:08:43.918Z,3.40
2018-02-20T03:09:44.148Z,3.40
2018-02-20T03:10:45.340Z,3.40
2018-02-20T03:11:45.341Z,3.20
2018-02-20T03:12:45.337Z,3.10
2018-02-20T03:13:45.039Z,3.50
2018-02-20T03:14:45.836Z,3.30
2018-02-20T03:15:45.499Z,3.40
2018-02-20T03:16:46.342Z,3.40
2018-02-20T03:17:46.868Z,3.40
2018-02-20T03:18:46.348Z,3.40
2018-02-20T03:19:47.348Z,3.50
2018-02-20T03:20:46.908Z,3.10
2018-02-20T03:21:47.840Z,3.10
2018-02-20T03:22:47.852Z,3.40
2018-02-20T03:23:47.559Z,3.30
2018-02-20T03:24:48.341Z,3.20
2018-02-20T03:25:48.841Z,3.10
2018-02-20T03:26:49.340Z,3.20
2018-02-20T03:27:49.341Z,3.40
2018-02-20T03:28:50.881Z,3.20
2018-02-20T03:29:48.889Z,3.10
2018-02-20T03:30:49.852Z,3.20
2018-02-20T03:31:49.329Z,3.30
2018-02-20T03:32:50.344Z,3.50
2018-02-20T03:33:49.777Z,3.10
2018-02-20T03:34:50.002Z,3.20
2018-02-20T03:35:50.239Z,3.00
2018-02-20T03:36:50.457Z,3.10
2018-02-20T03:37:50.702Z,3.50
2018-02-20T03:38:51.845Z,3.50
2018-02-20T03:39:51.151Z,3.40
2018-02-20T03:40:51.849Z,3.10
2018-02-20T03:41:52.356Z,3.20
2018-02-20T03:42:51.897Z,3.20
2018-02-20T03:43:52.951Z,3.20
2018-02-20T03:44:53.846Z,3.00
2018-02-20T03:45:53.407Z,3.20
2018-02-20T03:46:53.846Z,3.40
2018-02-20T03:47:53.169Z,3.20
2018-02-20T03:48:53.946Z,3.20
2018-02-20T03:49:54.364Z,3.30
2018-02-20T03:50:54.892Z,3.50
2018-02-20T03:51:54.175Z,3.30
2018-02-20T03:52:55.406Z,3.40
2018-02-20T03:53:55.352Z,3.00
2018-02-20T03:54:55.350Z,3.00
2018-02-20T03:55:55.087Z,3.30
2018-02-20T03:56:55.344Z,3.30
2018-02-20T03:57:55.584Z,3.30
2018-02-20T03:58:56.351Z,3.20
2018-02-20T03:59:56.953Z,3.20
2018-02-20T04:00:56.272Z,3.20
2018-02-20T04:01:57.356Z,3.10
2018-02-20T04:02:56.730Z,3.30
2018-02-20T04:03:57.873Z,3.20
2018-02-20T04:04:57.249Z,3.20
2018-02-20T04:05:57.489Z,3.40
2018-02-20T04:06:58.354Z,3.10
2018-02-20T04:07:58.858Z,3.00
2018-02-20T04:08:58.156Z,3.10
2018-02-20T04:09:58.878Z,3.10
2018-02-20T04:10:59.353Z,3.40
2018-02-20T04:11:59.856Z,3.00
2018-02-20T04:13:00.911Z,3.20
2018-02-20T04:17:03.960Z,3.20
2018-02-20T04:18:03.454Z,3.30
2018-02-20T04:19:03.504Z,2.90
2018-02-20T04:20:02.400Z,3.30
2018-02-20T04:21:02.674Z,3.00
2018-02-20T04:22:02.855Z,3.40
2018-02-20T04:23:04.962Z,3.40
2018-02-20T04:24:03.966Z,3.10
2018-02-20T04:25:03.677Z,3.00
2018-02-20T04:26:04.953Z,3.30
2018-02-20T04:27:04.953Z,3.30
2018-02-20T04:28:04.347Z,3.00
2018-02-20T04:29:04.576Z,3.30
2018-02-20T04:30:04.792Z,3.20
2018-02-20T04:32:38.121Z,3.60
2018-02-20T04:33:39.586Z,3.50
2018-02-20T04:34:36.368Z,3.20
2018-02-20T04:35:38.583Z,3.30
2018-02-20T04:36:37.581Z,3.10
2018-02-20T04:37:37.212Z,3.50
2018-02-20T04:38:38.583Z,3.00
2018-02-20T04:39:39.581Z,3.10
2018-02-20T04:40:37.922Z,3.10
2018-02-20T04:41:38.156Z,3.40
2018-02-20T04:42:38.387Z,3.00
2018-02-20T04:43:40.082Z,3.40
2018-02-20T04:44:39.599Z,3.10
2018-02-20T04:45:39.584Z,3.20
2018-02-20T04:46:40.089Z,3.30
2018-02-20T04:47:40.088Z,3.30
2018-02-20T04:48:39.798Z,3.00
2018-02-20T04:49:40.584Z,3.30
2018-02-20T04:50:40.244Z,3.40
2018-02-20T04:51:40.479Z,3.10
2018-02-20T04:52:40.709Z,3.30
2018-02-20T04:53:40.936Z,3.10
2018-02-20T04:54:41.168Z,3.00
2018-02-20T04:55:41.396Z,3.10
2018-02-20T04:56:41.629Z,3.60
2018-02-20T04:57:41.856Z,3.00
2018-02-20T04:58:42.081Z,3.30
2018-02-20T04:59:43.132Z,3.30
2018-02-20T05:00:42.520Z,3.20
2018-02-20T05:01:42.767Z,3.60
2018-02-20T05:02:43.028Z,3.40
2018-02-20T05:03:43.283Z,3.30
2018-02-20T05:04:44.622Z,3.20
2018-02-20T05:05:43.700Z,2.90
2018-02-20T05:06:43.929Z,3.10
2018-02-20T05:07:44.161Z,3.20
2018-02-20T05:08:44.390Z,3.20
2018-02-20T05:09:44.620Z,3.00
2018-02-20T05:10:44.846Z,3.20
2018-02-20T05:11:45.067Z,3.40
2018-02-20T05:12:45.288Z,3.00
2018-02-20T05:13:46.592Z,3.10
2018-02-20T05:14:46.592Z,3.40
2018-02-20T05:15:45.965Z,3.10
2018-02-20T05:16:47.094Z,3.40
2018-02-20T05:17:47.092Z,3.10
2018-02-20T05:18:46.644Z,3.10
2018-02-20T05:19:47.633Z,3.00
2018-02-20T05:20:47.139Z,3.20
2018-02-20T05:21:47.386Z,3.30
2018-02-20T05:22:48.097Z,3.10
2018-02-20T05:23:48.620Z,3.20
2018-02-20T05:24:48.099Z,3.10
2018-02-20T05:25:48.326Z,3.20
2018-02-20T05:26:48.545Z,2.80
2018-02-20T05:27:49.596Z,3.20
2018-02-20T05:28:48.991Z,3.10
2018-02-20T05:29:49.218Z,3.10
2018-02-20T05:30:49.442Z,3.20
2018-02-20T05:31:50.606Z,3.40
2018-02-20T05:32:49.892Z,3.30
2018-02-20T05:33:50.110Z,3.10
2018-02-20T05:34:50.337Z,3.10
2018-02-20T05:35:50.564Z,3.00
2018-02-20T05:36:50.796Z,3.10
2018-02-20T05:37:51.600Z,3.30
2018-02-20T05:38:51.248Z,3.00
2018-02-20T05:39:52.105Z,3.20
2018-02-20T05:40:51.704Z,3.10
2018-02-20T05:41:51.919Z,2.80
2018-02-20T05:42:52.148Z,3.30
2018-02-20T05:43:52.374Z,3.20
2018-02-20T05:44:52.604Z,3.40
2018-02-20T05:45:52.839Z,3.00
2018-02-20T05:46:53.054Z,3.40
2018-02-20T05:47:54.224Z,3.30
2018-02-20T05:48:53.525Z,3.40
2018-02-20T05:49:54.604Z,3.10
2018-02-20T05:50:54.604Z,3.20
2018-02-20T05:51:54.142Z,3.40
2018-02-20T05:52:54.376Z,3.30
2018-02-20T05:53:54.599Z,3.20
2018-02-20T05:54:54.849Z,3.10
2018-02-20T05:55:55.605Z,3.10
2018-02-20T05:56:56.116Z,3.20
2018-02-20T05:57:56.621Z,3.10
2018-02-20T05:58:55.723Z,3.10
2018-02-20T05:59:55.938Z,3.00
2018-02-20T06:00:57.124Z,3.20
2018-02-20T06:01:56.423Z,3.10
2018-02-20T06:02:56.648Z,3.10
2018-02-20T06:03:56.888Z,3.30
2018-02-20T06:04:57.093Z,3.00
2018-02-20T06:05:58.109Z,2.90
2018-02-20T06:06:58.171Z,3.20
2018-02-20T06:07:58.631Z,3.30
2018-02-20T06:08:58.155Z,2.80
2018-02-20T06:09:58.395Z,3.20
2018-02-20T06:10:59.608Z,3.20
2018-02-20T06:11:58.849Z,2.90
2018-02-20T06:12:59.611Z,3.20
2018-02-20T06:14:00.112Z,3.30
2018-02-20T06:15:00.110Z,3.40
2018-02-20T06:15:59.742Z,3.00
2018-02-20T06:16:59.972Z,3.20
2018-02-20T06:18:01.213Z,3.20
2018-02-20T06:19:01.616Z,3.20
2018-02-20T06:20:01.616Z,3.30
2018-02-20T06:21:01.615Z,2.90
2018-02-20T06:22:02.113Z,3.20
2018-02-20T06:23:01.629Z,3.10
2018-02-20T06:24:02.632Z,3.40
2018-02-20T06:25:03.115Z,3.10
2018-02-20T06:26:03.114Z,3.40
2018-02-20T06:27:02.663Z,2.80
2018-02-20T06:28:03.616Z,3.10
2018-02-20T06:29:03.095Z,3.30
2018-02-20T06:30:03.321Z,3.10
2018-02-20T06:31:05.115Z,3.40
2018-02-20T06:32:03.980Z,3.20
2018-02-20T06:33:05.117Z,3.10
2018-02-20T06:34:04.575Z,3.40
2018-02-20T06:35:04.799Z,3.30
2018-02-20T06:36:05.674Z,3.00
2018-02-20T06:37:06.122Z,3.10
2018-02-20T06:38:05.608Z,3.00
2018-02-20T06:39:06.648Z,3.00
2018-02-20T06:40:06.619Z,3.10
2018-02-20T06:41:07.122Z,3.00
2018-02-20T06:42:07.126Z,3.30
2018-02-20T06:43:06.689Z,3.40
2018-02-20T06:44:06.917Z,3.10
2018-02-20T06:45:07.160Z,3.20
2018-02-20T06:46:08.123Z,3.20
2018-02-20T06:47:08.620Z,3.40
2018-02-20T06:48:07.898Z,3.10
2018-02-20T06:49:08.629Z,2.90
2018-02-20T06:50:09.227Z,3.10
2018-02-20T06:51:09.622Z,3.10
2018-02-20T06:52:08.961Z,3.10
2018-02-20T06:53:10.122Z,3.20
2018-02-20T06:54:10.121Z,3.20
2018-02-20T06:55:10.137Z,3.40
2018-02-20T07:01:43.287Z,3.10
2018-02-20T07:02:43.521Z,3.10
2018-02-20T07:05:14.296Z,3.30
2018-02-20T07:06:16.808Z,3.00
2018-02-20T07:07:16.543Z,3.20
2018-02-20T07:08:16.326Z,3.00
2018-02-20T07:09:15.190Z,3.00
2018-02-20T07:10:16.336Z,3.10
2018-02-20T07:11:15.636Z,2.90
2018-02-20T07:12:15.865Z,3.10
2018-02-20T07:13:16.829Z,3.20
2018-02-20T07:14:16.816Z,3.10
2018-02-20T07:15:16.524Z,2.90
2018-02-20T07:16:16.754Z,3.00
2018-02-20T07:17:16.978Z,3.20
2018-02-20T07:18:17.205Z,2.90
2018-02-20T07:19:17.431Z,3.20
2018-02-20T07:20:17.659Z,3.20
2018-02-20T07:21:20.349Z,3.10
2018-02-20T07:22:18.822Z,3.00
2018-02-20T07:23:19.308Z,3.30
2018-02-20T07:24:18.540Z,3.00
2018-02-20T07:25:19.311Z,3.20
2018-02-20T07:26:19.812Z,3.10
2018-02-20T07:27:19.212Z,3.10
2018-02-20T07:28:19.441Z,3.10
2018-02-20T07:29:19.671Z,3.40
2018-02-20T07:30:19.898Z,3.10
2018-02-20T07:31:20.909Z,3.10
2018-02-20T07:32:21.312Z,3.30
2018-02-20T07:33:20.674Z,3.00
2018-02-20T07:34:20.914Z,3.20
2018-02-20T07:35:21.146Z,3.20
2018-02-20T07:36:22.866Z,3.40
2018-02-20T07:37:21.666Z,3.00
2018-02-20T07:38:21.892Z,3.20
2018-02-20T07:39:22.820Z,3.10
2018-02-20T07:40:22.400Z,3.30
2018-02-20T07:41:23.314Z,3.20
2018-02-20T07:42:22.841Z,3.20
2018-02-20T07:43:23.072Z,3.10
2018-02-20T07:44:23.815Z,3.20
2018-02-20T07:45:23.528Z,3.00
2018-02-20T07:46:24.316Z,3.30
2018-02-20T07:47:25.878Z,3.20
2018-02-20T07:48:25.316Z,3.10
2018-02-20T07:49:24.605Z,3.10
2018-02-20T07:50:24.842Z,3.10
2018-02-20T07:51:25.818Z,3.20
2018-02-20T07:52:25.282Z,3.10
2018-02-20T07:53:25.489Z,3.00
2018-02-20T07:54:26.320Z,3.20
2018-02-20T07:55:25.968Z,2.90
2018-02-20T07:56:26.203Z,3.20
2018-02-20T07:57:27.319Z,3.20
2018-02-20T07:58:27.329Z,3.30
2018-02-20T07:59:28.319Z,3.50
2018-02-20T08:00:27.822Z,3.10
2018-02-20T08:01:27.302Z,3.30
2018-02-20T08:02:28.414Z,3.30
2018-02-20T08:03:28.825Z,3.00
2018-02-20T08:04:28.828Z,3.00
2018-02-20T08:05:29.340Z,3.20
2018-02-20T08:06:28.621Z,3.10
2018-02-20T08:07:29.326Z,3.10
2018-02-20T08:08:29.111Z,3.20
2018-02-20T08:09:29.340Z,3.00
2018-02-20T08:10:30.324Z,3.10
2018-02-20T08:11:30.341Z,3.00
2018-02-20T08:12:30.833Z,3.20
2018-02-20T08:13:31.824Z,3.30
2018-02-20T08:14:31.824Z,2.90
2018-02-20T08:15:31.824Z,3.10
2018-02-20T08:16:31.826Z,3.20
2018-02-20T08:17:31.894Z,3.20
2018-02-20T08:18:32.325Z,3.30
2018-02-20T08:19:32.374Z,3.00
2018-02-20T08:20:32.327Z,3.50
2018-02-20T08:21:31.992Z,3.40
2018-02-20T08:22:32.231Z,3.20
2018-02-20T08:23:33.349Z,3.00
2018-02-20T08:24:32.667Z,3.20
2018-02-20T08:25:32.900Z,3.10
2018-02-20T08:26:33.132Z,3.30
2018-02-20T08:27:34.329Z,3.20
2018-02-20T08:28:34.331Z,3.20
2018-02-20T08:29:34.846Z,3.10
2018-02-20T08:30:34.910Z,3.20
2018-02-20T08:31:34.449Z,3.20
2018-02-20T08:32:34.711Z,3.10
2018-02-20T08:33:35.830Z,3.20
2018-02-20T08:34:35.877Z,3.10
2018-02-20T08:35:36.830Z,3.20
2018-02-20T08:36:35.592Z,3.30
2018-02-20T08:37:35.818Z,3.20
2018-02-20T08:38:36.052Z,2.80
2018-02-20T08:39:37.361Z,3.40
2018-02-20T08:40:36.484Z,3.20
2018-02-20T08:41:37.390Z,3.20
2018-02-20T08:42:38.837Z,3.30
2018-02-20T08:43:39.375Z,3.00
2018-02-20T08:44:39.364Z,3.20
2018-02-20T08:45:37.723Z,3.20
2018-02-20T08:46:38.841Z,3.00
2018-02-20T08:47:38.156Z,3.30
2018-02-20T08:48:39.334Z,3.30
2018-02-20T08:49:38.625Z,3.20
2018-02-20T08:50:38.877Z,3.20
2018-02-20T08:51:39.088Z,3.20
2018-02-20T08:52:39.909Z,3.10
2018-02-20T08:53:40.336Z,3.20
2018-02-20T08:54:40.337Z,3.20
2018-02-20T08:55:40.846Z,3.30
2018-02-20T08:56:41.337Z,3.10
2018-02-20T08:58:07.358Z,3.40
2018-02-20T08:58:42.387Z,3.20
2018-02-20T08:59:41.839Z,3.10
2018-02-20T09:00:41.847Z,3.50
2018-02-20T09:01:42.343Z,3.30
2018-02-20T09:02:41.717Z,3.00
2018-02-20T09:03:41.944Z,3.30
2018-02-20T09:04:43.889Z,3.40
2018-02-20T09:05:42.455Z,3.40
2018-02-20T09:06:42.670Z,3.50
2018-02-20T09:07:42.904Z,3.10
2018-02-20T09:08:43.131Z,3.20
2018-02-20T09:09:43.375Z,3.00
2018-02-20T09:10:44.884Z,3.10
2018-02-20T09:11:44.895Z,3.30
2018-02-20T09:12:44.021Z,3.50
2018-02-20T09:13:44.848Z,3.30
2018-02-20T09:14:45.353Z,3.20
2018-02-20T09:15:44.689Z,3.30
2018-02-20T09:16:44.894Z,3.20
2018-02-20T09:17:45.120Z,3.30
2018-02-20T09:18:45.390Z,3.50
2018-02-20T09:19:45.556Z,3.20
2018-02-20T09:20:45.784Z,3.40
2018-02-20T09:21:46.003Z,3.20
2018-02-20T09:22:46.250Z,3.60
2018-02-20T09:23:48.344Z,3.40
2018-02-20T09:24:46.752Z,3.40
2018-02-20T09:25:46.981Z,3.30
2018-02-20T09:26:48.409Z,3.40
2018-02-20T09:27:47.494Z,3.30
2018-02-20T09:28:48.368Z,3.50
2018-02-20T09:29:47.947Z,3.40
2018-02-20T09:30:48.859Z,3.30
2018-02-20T09:31:48.386Z,3.30
2018-02-20T09:32:48.614Z,3.20
2018-02-20T09:33:48.844Z,3.30
2018-02-20T09:34:49.079Z,3.20
2018-02-20T09:35:49.294Z,3.60
2018-02-20T09:36:50.376Z,3.40
2018-02-20T09:37:50.359Z,3.50
2018-02-20T09:38:50.874Z,3.30
2018-02-20T09:39:50.175Z,3.40
2018-02-20T09:40:51.380Z,3.50
2018-02-20T09:41:50.668Z,3.30
2018-02-20T09:42:51.350Z,3.10
2018-02-20T09:43:55.351Z,3.30
2018-02-20T09:44:51.406Z,3.20
2018-02-20T09:45:52.354Z,3.40
2018-02-20T09:46:52.438Z,3.00
2018-02-20T09:47:54.392Z,3.10
2018-02-20T09:48:53.351Z,3.20
2018-02-20T09:49:52.706Z,3.30
2018-02-20T09:50:53.112Z,3.60
2018-02-20T09:51:53.854Z,3.20
2018-02-20T09:52:53.364Z,3.10
2018-02-20T09:53:54.390Z,3.40
2018-02-20T09:54:53.951Z,3.20
2018-02-20T09:55:54.855Z,3.40
2018-02-20T09:56:56.420Z,3.60
2018-02-20T09:57:54.625Z,3.20
2018-02-20T09:58:55.855Z,3.60
2018-02-20T09:59:55.890Z,3.60
2018-02-20T10:00:55.857Z,3.50
2018-02-20T10:01:57.485Z,3.40
2018-02-20T10:02:55.738Z,3.50
2018-02-20T10:03:55.967Z,3.50
2018-02-20T10:04:56.965Z,3.60
2018-02-20T10:05:56.494Z,3.30
2018-02-20T10:06:57.434Z,3.20
2018-02-20T10:07:58.062Z,3.40
2018-02-20T10:08:58.383Z,3.60
2018-02-20T10:09:58.359Z,3.40
2018-02-20T10:10:57.981Z,3.20
2018-02-20T10:11:58.212Z,3.40
2018-02-20T10:12:58.442Z,3.20
2018-02-20T10:13:58.676Z,3.40
2018-02-20T10:14:58.904Z,3.20
2018-02-20T10:15:59.861Z,3.50
2018-02-20T10:16:59.353Z,3.40
2018-02-20T10:17:59.583Z,3.30
2018-02-20T10:18:59.802Z,3.80
2018-02-20T10:20:00.028Z,3.50
2018-02-20T10:21:01.363Z,3.30
2018-02-20T10:22:02.397Z,3.70
2018-02-20T10:23:00.808Z,3.40
2018-02-20T10:24:03.401Z,3.40
2018-02-20T10:25:03.405Z,3.60
2018-02-20T10:26:03.432Z,3.60
2018-02-20T10:27:01.964Z,3.50
2018-02-20T10:28:02.902Z,3.50
2018-02-20T10:29:03.374Z,3.10
2018-02-20T10:30:03.368Z,3.30
2018-02-20T10:31:03.895Z,3.80
2018-02-20T10:32:03.182Z,3.50
2018-02-20T10:33:03.415Z,3.60
2018-02-20T10:34:03.641Z,3.60
2018-02-20T10:35:04.897Z,3.50
2018-02-20T10:36:04.083Z,3.70
2018-02-20T10:37:04.869Z,3.70
2018-02-20T10:38:05.384Z,3.60
2018-02-20T10:39:06.404Z,3.70
2018-02-20T10:40:04.991Z,3.80
2018-02-20T10:41:05.867Z,3.80
2018-02-20T10:42:05.454Z,3.70
2018-02-20T10:43:05.678Z,4.00
2018-02-20T10:44:05.906Z,4.30
2018-02-20T10:45:06.138Z,3.90
2018-02-20T10:46:06.368Z,3.80
2018-02-20T10:47:06.605Z,3.70
2018-02-20T10:48:06.827Z,3.60
2018-02-20T10:49:07.903Z,3.80
2018-02-20T10:50:07.270Z,3.80
2018-02-20T10:51:07.500Z,3.50
2018-02-20T10:52:07.730Z,3.60
2018-02-20T10:53:07.954Z,3.40
2018-02-20T10:54:08.194Z,3.60
2018-02-20T10:55:08.422Z,3.60
2018-02-20T10:56:08.655Z,3.90
2018-02-20T10:57:22.890Z,3.40
2018-02-20T10:58:09.133Z,3.70
2018-02-20T10:59:09.365Z,3.60
2018-02-20T11:00:09.595Z,3.70
2018-02-20T11:01:09.835Z,3.50
2018-02-20T11:02:10.066Z,3.70
2018-02-20T11:03:10.289Z,3.50
2018-02-20T11:04:10.523Z,3.50
2018-02-20T11:05:10.760Z,3.80
2018-02-20T11:06:10.974Z,3.90
2018-02-20T11:07:11.234Z,3.60
2018-02-20T11:08:11.451Z,3.50
2018-02-20T11:09:11.698Z,3.70
2018-02-20T11:10:11.884Z,3.70
2018-02-20T11:11:12.131Z,3.50
2018-02-20T11:12:12.366Z,3.70
2018-02-20T11:13:12.641Z,4.00
2018-02-20T11:14:12.825Z,3.50
2018-02-20T11:15:13.052Z,3.70
2018-02-20T11:16:13.287Z,3.40
2018-02-20T11:17:13.524Z,3.60
2018-02-20T11:18:13.748Z,3.70
2018-02-20T11:19:14.001Z,3.70
2018-02-20T11:20:14.212Z,3.50
2018-02-20T11:21:14.438Z,3.80
2018-02-20T11:22:14.669Z,3.70
2018-02-20T11:23:14.901Z,3.50
2018-02-20T11:24:15.128Z,3.80
2018-02-20T11:25:15.357Z,3.70
2018-02-20T11:26:15.588Z,4.00
2018-02-20T11:27:15.818Z,3.60
2018-02-20T11:28:16.045Z,3.70
2018-02-20T11:29:16.272Z,3.60
2018-02-20T11:30:16.490Z,3.60
2018-02-20T11:31:16.730Z,3.60
2018-02-20T11:32:16.951Z,4.00
2018-02-20T11:33:17.181Z,4.00
2018-02-20T11:34:17.411Z,3.80
2018-02-20T11:35:17.642Z,3.80
2018-02-20T11:36:17.874Z,3.80
2018-02-20T11:37:18.099Z,3.90
2018-02-20T11:38:18.332Z,3.60
2018-02-20T11:39:18.553Z,3.80
2018-02-20T11:40:18.791Z,3.80
2018-02-20T11:41:19.020Z,3.90
2018-02-20T11:42:19.254Z,3.70
2018-02-20T11:43:19.480Z,3.70
2018-02-20T11:44:19.711Z,4.00
2018-02-20T11:45:19.939Z,3.60
2018-02-20T11:46:20.182Z,3.90
2018-02-20T11:47:21.386Z,3.90
2018-02-20T11:48:20.636Z,3.90
2018-02-20T11:49:20.848Z,3.70
2018-02-20T11:50:21.066Z,4.10
2018-02-20T11:51:21.298Z,3.90
2018-02-20T11:52:21.520Z,3.80
2018-02-20T11:53:21.755Z,3.50
2018-02-20T11:54:21.975Z,4.00
2018-02-20T11:55:22.204Z,3.80
2018-02-20T11:56:22.431Z,3.60
2018-02-20T11:57:23.018Z,4.00
2018-02-20T11:58:22.894Z,3.50
2018-02-20T11:59:23.509Z,3.60
2018-02-20T12:00:23.358Z,3.70
2018-02-20T12:01:24.394Z,3.90
2018-02-20T12:02:24.160Z,3.50
2018-02-20T12:03:24.020Z,3.60
2018-02-20T12:04:24.257Z,3.70
2018-02-20T12:05:24.486Z,3.70
2018-02-20T12:06:24.718Z,3.80
2018-02-20T12:07:24.948Z,3.80
2018-02-20T12:08:25.176Z,3.60
2018-02-20T12:09:25.402Z,3.70
2018-02-20T12:10:25.632Z,3.80
2018-02-20T12:11:25.866Z,3.70
2018-02-20T12:12:26.095Z,3.80
2018-02-20T12:13:26.334Z,3.80
2018-02-20T12:14:26.553Z,3.50
2018-02-20T12:15:26.786Z,4.10
2018-02-20T12:16:27.005Z,3.80
2018-02-20T12:17:27.248Z,3.70
2018-02-20T12:18:27.476Z,3.70
2018-02-20T12:19:27.718Z,4.00
2018-02-20T12:20:27.935Z,4.00
2018-02-20T12:21:28.152Z,3.50
2018-02-20T12:22:28.383Z,3.80
2018-02-20T12:23:28.617Z,3.70
2018-02-20T12:24:28.850Z,4.10
2018-02-20T12:25:29.090Z,4.10
2018-02-20T12:26:29.300Z,3.90
2018-02-20T12:27:29.531Z,4.00
2018-02-20T12:28:29.761Z,3.80
2018-02-20T12:29:30.001Z,3.70
2018-02-20T12:30:30.238Z,4.00
2018-02-20T12:31:30.469Z,3.70
2018-02-20T12:32:30.681Z,3.80
2018-02-20T12:33:30.911Z,3.80
2018-02-20T12:34:31.141Z,3.80
2018-02-20T12:35:31.363Z,3.90
2018-02-20T12:36:31.585Z,4.00
2018-02-20T12:37:31.808Z,4.00
2018-02-20T12:38:32.040Z,3.80
2018-02-20T12:39:32.269Z,4.10
2018-02-20T12:40:32.498Z,4.00
2018-02-20T12:41:32.734Z,3.80
2018-02-20T12:42:32.969Z,3.90
2018-02-20T12:43:33.182Z,3.60
2018-02-20T12:44:33.414Z,3.90
2018-02-20T12:45:34.405Z,3.50
2018-02-20T12:46:33.868Z,3.90
2018-02-20T12:47:34.084Z,3.90
2018-02-20T12:48:34.328Z,3.90
2018-02-20T12:49:34.576Z,3.80
2018-02-20T12:50:34.783Z,3.90
2018-02-20T12:51:35.017Z,3.80
2018-02-20T12:52:35.247Z,3.90
2018-02-20T12:53:35.528Z,3.80
2018-02-20T12:54:35.712Z,3.70
2018-02-20T12:55:35.939Z,4.00
2018-02-20T12:56:36.171Z,3.80
2018-02-20T12:57:38.445Z,3.80
2018-02-20T12:58:36.618Z,3.90
2018-02-20T12:59:36.847Z,4.00
2018-02-20T13:00:37.070Z,4.10
2018-02-20T13:01:37.299Z,3.70
2018-02-20T13:02:37.541Z,3.90
2018-02-20T13:03:37.751Z,4.00
2018-02-20T13:04:37.989Z,3.80
2018-02-20T13:05:38.226Z,4.10
2018-02-20T13:06:38.452Z,3.80
2018-02-20T13:07:38.683Z,4.10
2018-02-20T13:08:38.906Z,4.10
2018-02-20T13:09:39.136Z,3.80
2018-02-20T13:10:39.368Z,4.30
2018-02-20T13:11:39.600Z,4.00
2018-02-20T13:12:39.829Z,4.30
2018-02-20T13:13:40.057Z,3.90
2018-02-20T13:14:40.327Z,3.90
2018-02-20T13:15:40.519Z,4.00
2018-02-20T13:16:40.754Z,4.10
2018-02-20T13:17:40.987Z,4.20
2018-02-20T13:18:41.216Z,4.20
2018-02-20T13:19:41.429Z,4.00
2018-02-20T13:20:41.656Z,4.00
2018-02-20T13:21:41.900Z,4.00
2018-02-20T13:22:42.132Z,4.00
2018-02-20T13:23:42.361Z,4.10
2018-02-20T13:24:42.591Z,3.90
2018-02-20T13:25:42.818Z,4.00
2018-02-20T13:26:43.042Z,4.20
2018-02-20T13:27:43.268Z,4.10
2018-02-20T13:28:43.504Z,4.30
2018-02-20T13:29:43.741Z,4.30
2018-02-20T13:30:43.960Z,4.50
2018-02-20T13:31:44.179Z,3.90
2018-02-20T13:32:44.407Z,4.20
2018-02-20T13:33:44.636Z,4.20
2018-02-20T13:34:44.874Z,4.00
2018-02-20T13:35:45.104Z,4.40
2018-02-20T13:36:45.332Z,4.30
2018-02-20T13:37:45.559Z,3.90
2018-02-20T13:38:45.789Z,4.00
2018-02-20T13:39:46.018Z,4.00
2018-02-20T13:40:46.247Z,3.80
2018-02-20T13:41:46.479Z,4.20
2018-02-20T13:42:46.712Z,4.10
2018-02-20T13:43:46.935Z,3.80
2018-02-20T13:44:47.164Z,3.70
2018-02-20T13:45:47.394Z,4.40
2018-02-20T13:46:47.623Z,4.00
2018-02-20T13:47:47.853Z,4.10
2018-02-20T13:48:48.083Z,4.20
2018-02-20T13:49:48.313Z,4.30
2018-02-20T13:50:48.543Z,4.20
2018-02-20T13:51:48.775Z,4.20